createdAt,value
2018-07-27T00:00:26.194Z,23.10
2018-07-27T00:03:50.882Z,23.10
2018-07-27T00:07:15.583Z,23.00
2018-07-27T00:10:40.301Z,22.90
2018-07-27T00:14:05.366Z,22.80
2018-07-27T00:17:30.032Z,22.80
2018-07-27T00:20:54.684Z,22.80
2018-07-27T00:24:19.397Z,22.80
2018-07-27T00:27:44.259Z,22.80
2018-07-27T00:31:08.919Z,22.80
2018-07-27T00:34:33.550Z,22.80
2018-07-27T00:37:57.384Z,22.80
2018-07-27T00:41:21.279Z,22.70
2018-07-27T00:44:45.169Z,22.60
2018-07-27T00:48:09.034Z,22.50
2018-07-27T00:51:33.739Z,22.50
2018-07-27T00:54:58.532Z,22.50
2018-07-27T00:58:23.180Z,22.50
2018-07-27T01:01:47.814Z,22.50
2018-07-27T01:05:12.574Z,22.50
2018-07-27T01:08:37.300Z,22.50
2018-07-27T01:12:01.959Z,22.50
2018-07-27T01:15:26.632Z,22.50
2018-07-27T01:18:51.329Z,22.40
2018-07-27T01:22:16.024Z,22.40
2018-07-27T01:25:40.791Z,22.30
2018-07-27T01:29:05.595Z,22.20
2018-07-27T01:32:30.317Z,22.10
2018-07-27T01:35:54.207Z,22.00
2018-07-27T01:39:18.121Z,21.90
2018-07-27T01:42:42.789Z,21.80
2018-07-27T01:46:07.483Z,21.80
2018-07-27T01:49:32.123Z,21.90
2018-07-27T01:56:21.143Z,21.90
2018-07-27T01:59:45.821Z,21.80
2018-07-27T02:03:10.507Z,21.80
2018-07-27T02:06:35.242Z,21.80
2018-07-27T02:09:59.929Z,21.70
2018-07-27T02:13:24.626Z,21.70
2018-07-27T02:16:49.247Z,21.60
2018-07-27T02:20:13.925Z,21.60
2018-07-27T02:23:38.609Z,21.50
2018-07-27T02:27:03.250Z,21.40
2018-07-27T02:30:28.234Z,21.40
2018-07-27T02:33:53.390Z,21.40
2018-07-27T02:37:18.199Z,21.40
2018-07-27T02:40:42.888Z,21.40
2018-07-27T02:47:32.259Z,21.30
2018-07-27T02:50:57.468Z,21.30
2018-07-27T02:54:22.193Z,21.20
2018-07-27T03:01:11.289Z,21.10
2018-07-27T03:04:36.070Z,21.20
2018-07-27T03:08:00.755Z,21.20
2018-07-27T03:11:25.417Z,21.10
2018-07-27T03:14:50.116Z,21.00
2018-07-27T03:18:14.777Z,21.00
2018-07-27T03:21:39.443Z,21.00
2018-07-27T03:25:04.224Z,20.90
2018-07-27T03:28:28.882Z,20.80
2018-07-27T03:31:53.544Z,20.80
2018-07-27T03:35:18.324Z,20.80
2018-07-27T03:38:42.988Z,20.70
2018-07-27T03:42:07.744Z,20.60
2018-07-27T03:45:32.396Z,20.60
2018-07-27T03:48:57.057Z,20.50
2018-07-27T03:52:21.736Z,20.40
2018-07-27T03:55:46.450Z,20.40
2018-07-27T03:59:11.094Z,20.40
2018-07-27T04:02:35.760Z,20.50
2018-07-27T04:06:00.530Z,20.60
2018-07-27T04:09:25.219Z,20.40
2018-07-27T04:12:49.896Z,20.40
2018-07-27T04:16:14.607Z,20.30
2018-07-27T04:19:39.303Z,20.30
2018-07-27T04:26:28.664Z,20.30
2018-07-27T04:29:53.317Z,20.30
2018-07-27T04:33:17.986Z,20.40
2018-07-27T04:36:42.704Z,20.40
2018-07-27T04:40:07.870Z,20.40
2018-07-27T04:43:32.544Z,20.50
2018-07-27T04:46:57.247Z,20.50
2018-07-27T04:50:21.892Z,20.50
2018-07-27T04:53:46.552Z,20.50
2018-07-27T05:00:35.747Z,20.40
2018-07-27T05:04:00.430Z,20.40
2018-07-27T05:07:25.161Z,20.50
2018-07-27T05:10:50.585Z,20.70
2018-07-27T05:14:15.246Z,20.70
2018-07-27T05:17:39.987Z,20.70
2018-07-27T05:21:04.736Z,20.70
2018-07-27T05:24:29.440Z,20.80
2018-07-27T05:27:54.098Z,20.80
2018-07-27T05:31:18.852Z,20.80
2018-07-27T05:34:43.657Z,20.90
2018-07-27T05:38:08.348Z,21.10
2018-07-27T05:41:33.043Z,21.10
2018-07-27T05:44:57.817Z,21.20
2018-07-27T05:48:22.484Z,21.20
2018-07-27T05:51:47.200Z,21.50
2018-07-27T05:55:12.064Z,21.50
2018-07-27T05:58:36.853Z,21.50
2018-07-27T06:02:01.691Z,21.60
2018-07-27T06:05:26.345Z,21.70
2018-07-27T06:08:51.055Z,21.80
2018-07-27T06:12:15.844Z,21.90
2018-07-27T06:15:40.548Z,22.00
2018-07-27T06:19:05.229Z,22.10
2018-07-27T06:22:29.951Z,22.20
2018-07-27T06:25:54.690Z,22.30
2018-07-27T06:29:19.386Z,22.40
2018-07-27T06:32:44.122Z,22.50
2018-07-27T06:39:34.349Z,22.60
2018-07-27T06:42:59.127Z,22.60
2018-07-27T06:46:23.845Z,22.70
2018-07-27T06:49:48.517Z,22.80
2018-07-27T06:53:13.205Z,22.90
2018-07-27T06:56:37.892Z,23.00
2018-07-27T07:00:02.568Z,23.10
2018-07-27T07:03:27.369Z,23.20
2018-07-27T07:06:51.982Z,23.30
2018-07-27T07:10:16.799Z,23.30
2018-07-27T07:13:41.525Z,23.40
2018-07-27T07:17:06.143Z,23.60
2018-07-27T07:20:30.821Z,23.70
2018-07-27T07:23:55.503Z,23.70
2018-07-27T07:27:20.153Z,23.80
2018-07-27T07:30:44.826Z,23.80
2018-07-27T07:34:09.530Z,23.90
2018-07-27T07:37:34.213Z,24.00
2018-07-27T07:40:58.955Z,24.10
2018-07-27T07:44:23.614Z,24.30
2018-07-27T07:51:12.673Z,24.40
2018-07-27T07:54:37.393Z,24.60
2018-07-27T07:58:02.259Z,24.60
2018-07-27T08:01:27.104Z,24.80
2018-07-27T08:04:51.818Z,24.90
2018-07-27T08:08:16.873Z,25.00
2018-07-27T08:11:41.524Z,25.10
2018-07-27T08:15:06.597Z,25.30
2018-07-27T08:18:31.363Z,25.40
2018-07-27T08:21:56.295Z,25.50
2018-07-27T08:25:21.107Z,25.70
2018-07-27T08:35:34.919Z,25.80
2018-07-27T08:38:59.681Z,25.90
2018-07-27T08:42:24.475Z,26.10
2018-07-27T08:45:49.396Z,26.20
2018-07-27T08:49:14.421Z,26.30
2018-07-27T08:52:39.231Z,26.40
2018-07-27T08:59:28.583Z,26.50
2018-07-27T09:02:53.341Z,26.60
2018-07-27T09:06:18.663Z,26.80
2018-07-27T09:13:07.993Z,26.90
2018-07-27T09:16:32.972Z,27.00
2018-07-27T09:19:57.834Z,27.00
2018-07-27T09:23:23.031Z,27.20
2018-07-27T09:26:47.732Z,27.20
2018-07-27T09:30:12.531Z,27.30
2018-07-27T09:33:37.334Z,27.50
2018-07-27T09:40:26.952Z,27.80
2018-07-27T09:47:16.157Z,27.80
2018-07-27T09:50:41.257Z,27.80
2018-07-27T09:54:06.168Z,28.00
2018-07-27T09:57:30.960Z,28.00
2018-07-27T10:01:01.256Z,28.20
2018-07-27T10:11:15.528Z,28.50
2018-07-27T10:14:40.296Z,28.70
2018-07-27T10:18:05.521Z,28.60
2018-07-27T10:21:30.442Z,28.70
2018-07-27T10:24:55.286Z,28.90
2018-07-27T10:31:46.279Z,29.60
2018-07-27T10:35:15.344Z,29.80
2018-07-27T10:38:41.073Z,29.70
2018-07-27T10:42:09.378Z,29.60
2018-07-27T10:45:34.305Z,29.80
2018-07-27T10:48:59.119Z,29.80
2018-07-27T10:52:23.817Z,29.70
2018-07-27T10:55:48.494Z,29.70
2018-07-27T10:59:13.274Z,29.80
2018-07-27T11:02:38.058Z,29.70
2018-07-27T11:06:02.772Z,29.80
2018-07-27T11:09:27.475Z,29.90
2018-07-27T11:16:16.761Z,30.00
2018-07-27T11:19:41.380Z,30.10
2018-07-27T11:23:06.062Z,30.20
2018-07-27T11:26:30.804Z,30.50
2018-07-27T11:29:55.488Z,30.90
2018-07-27T11:33:20.309Z,30.90
2018-07-27T11:36:45.090Z,31.00
2018-07-27T11:40:09.854Z,31.00
2018-07-27T11:43:34.682Z,31.30
2018-07-27T11:50:23.928Z,31.20
2018-07-27T11:53:48.746Z,30.90
2018-07-27T11:57:13.514Z,31.10
2018-07-27T12:00:38.335Z,31.60
2018-07-27T12:04:03.050Z,31.60
2018-07-27T12:14:16.778Z,31.30
2018-07-27T12:17:41.415Z,31.30
2018-07-27T12:21:08.266Z,31.50
2018-07-27T12:24:33.029Z,31.50
2018-07-27T12:27:57.787Z,31.80
2018-07-27T12:31:22.492Z,32.10
2018-07-27T12:34:47.340Z,31.90
2018-07-27T12:38:12.659Z,31.80
2018-07-27T12:45:02.038Z,32.10
2018-07-27T12:51:51.038Z,32.00
2018-07-27T12:55:15.852Z,32.10
2018-07-27T12:58:40.506Z,32.20
2018-07-27T13:02:05.312Z,32.10
2018-07-27T13:05:30.086Z,32.00
2018-07-27T13:08:55.071Z,32.20
2018-07-27T13:12:19.796Z,32.30
2018-07-27T13:15:44.563Z,32.30
2018-07-27T13:19:09.342Z,32.50
2018-07-27T13:22:34.251Z,32.80
2018-07-27T13:29:40.337Z,33.00
2018-07-27T13:33:05.143Z,32.80
2018-07-27T13:36:29.918Z,32.90
2018-07-27T13:39:56.069Z,33.00
2018-07-27T13:43:20.792Z,33.10
2018-07-27T13:46:45.572Z,32.90
2018-07-27T13:50:11.113Z,33.20
2018-07-27T13:57:00.786Z,33.30
2018-07-27T14:00:25.466Z,33.40
2018-07-27T14:03:50.268Z,33.20
2018-07-27T14:10:39.485Z,33.40
2018-07-27T14:14:04.560Z,33.40
2018-07-27T14:17:29.364Z,33.00
2018-07-27T14:20:54.047Z,33.30
2018-07-27T14:24:18.812Z,33.40
2018-07-27T14:27:43.488Z,33.30
2018-07-27T14:31:08.164Z,33.30
2018-07-27T14:34:32.961Z,33.50
2018-07-27T14:37:57.896Z,33.30
2018-07-27T14:41:22.866Z,33.40
2018-07-27T14:44:47.570Z,33.10
2018-07-27T14:48:12.352Z,33.20
2018-07-27T14:51:37.089Z,33.60
2018-07-27T14:55:01.880Z,33.80
2018-07-27T14:58:26.628Z,34.10
2018-07-27T15:01:51.330Z,33.80
2018-07-27T15:05:16.008Z,33.80
2018-07-27T15:08:40.808Z,33.80
2018-07-27T15:12:05.508Z,33.90
2018-07-27T15:15:30.307Z,34.10
2018-07-27T15:18:54.984Z,34.40
2018-07-27T15:22:19.688Z,34.40
2018-07-27T15:25:44.470Z,34.60
2018-07-27T15:30:33.726Z,34.70
2018-07-27T15:34:01.038Z,35.20
2018-07-27T15:37:25.893Z,35.00
2018-07-27T15:40:50.528Z,35.00
2018-07-27T15:44:15.309Z,35.30
2018-07-27T15:47:40.330Z,35.30
2018-07-27T15:51:05.287Z,35.40
2018-07-27T15:54:30.014Z,34.90
2018-07-27T15:57:54.691Z,35.20
2018-07-27T16:01:19.376Z,35.20
2018-07-27T16:08:10.043Z,35.40
2018-07-27T16:11:35.068Z,35.30
2018-07-27T16:14:59.806Z,35.20
2018-07-27T16:18:24.540Z,35.40
2018-07-27T16:21:49.176Z,35.50
2018-07-27T16:25:13.886Z,35.80
2018-07-27T16:28:38.501Z,35.80
2018-07-27T16:32:03.199Z,35.80
2018-07-27T16:35:27.926Z,36.00
2018-07-27T16:38:52.592Z,35.90
2018-07-27T16:42:16.490Z,36.00
2018-07-27T16:49:04.738Z,36.00
2018-07-27T16:52:29.396Z,36.10
2018-07-27T16:55:54.091Z,36.20
2018-07-27T16:59:18.732Z,36.50
2018-07-27T17:02:43.377Z,36.70
2018-07-27T17:09:32.438Z,36.70
2018-07-27T17:12:57.133Z,37.00
2018-07-27T17:16:21.789Z,36.90
2018-07-27T17:19:46.456Z,36.70
2018-07-27T17:23:12.255Z,36.60
2018-07-27T17:26:36.917Z,36.30
2018-07-27T17:33:26.963Z,36.50
2018-07-27T17:36:51.839Z,36.50
2018-07-27T17:40:16.662Z,36.30
2018-07-27T17:43:41.369Z,36.20
2018-07-27T17:47:06.724Z,36.20
2018-07-27T17:50:31.374Z,36.40
2018-07-27T17:53:56.402Z,36.20
2018-07-27T17:57:21.118Z,35.80
2018-07-27T18:00:45.965Z,35.60
2018-07-27T18:04:10.742Z,35.70
2018-07-27T18:07:35.551Z,35.20
2018-07-27T18:11:00.129Z,34.70
2018-07-27T18:14:24.917Z,34.20
2018-07-27T18:17:49.768Z,33.80
2018-07-27T18:21:14.564Z,33.40
2018-07-27T18:24:39.319Z,33.00
2018-07-27T18:28:03.304Z,32.50
2018-07-27T18:31:27.434Z,32.00
2018-07-27T18:34:51.420Z,31.70
2018-07-27T18:38:15.711Z,31.50
2018-07-27T18:45:03.214Z,30.90
2018-07-27T18:48:27.135Z,30.70
2018-07-27T18:51:51.120Z,30.40
2018-07-27T18:55:15.084Z,30.10
2018-07-27T18:58:39.050Z,29.80
2018-07-27T19:02:02.958Z,29.50
2018-07-27T19:05:27.055Z,29.40
2018-07-27T19:12:14.657Z,29.00
2018-07-27T19:15:38.856Z,28.70
2018-07-27T19:19:02.908Z,28.60
2018-07-27T19:29:14.075Z,28.20
2018-07-27T19:36:01.560Z,27.90
2018-07-27T19:39:25.516Z,27.80
2018-07-27T19:42:49.419Z,27.70
2018-07-27T19:46:13.321Z,27.60
2018-07-27T19:49:37.246Z,27.50
2018-07-27T19:53:01.175Z,27.40
2018-07-27T19:56:25.112Z,27.40
2018-07-27T19:59:48.997Z,27.20
2018-07-27T20:03:12.896Z,27.20
2018-07-27T20:10:00.420Z,26.90
2018-07-27T20:13:24.406Z,26.80
2018-07-27T20:16:48.286Z,26.80
2018-07-27T20:20:12.207Z,26.80
2018-07-27T20:23:36.180Z,26.60
2018-07-27T20:27:00.059Z,26.60
2018-07-27T20:37:11.171Z,26.30
2018-07-27T20:40:35.237Z,26.20
2018-07-27T20:43:59.132Z,26.10
2018-07-27T20:47:23.046Z,26.10
2018-07-27T20:50:46.925Z,26.00
2018-07-27T20:54:11.184Z,25.90
2018-07-27T21:00:58.655Z,25.70
2018-07-27T21:04:22.914Z,25.70
2018-07-27T21:07:48.711Z,25.60
2018-07-27T21:11:14.430Z,25.60
2018-07-27T21:18:04.932Z,25.50
2018-07-27T21:21:29.204Z,25.50
2018-07-27T21:24:53.486Z,25.40
2018-07-27T21:28:18.366Z,25.30
2018-07-27T21:31:42.605Z,25.20
2018-07-27T21:35:07.480Z,25.10
2018-07-27T21:38:31.681Z,25.00
2018-07-27T21:41:57.800Z,24.90
2018-07-27T21:45:22.309Z,24.80
2018-07-27T21:48:46.877Z,24.70
2018-07-27T21:52:11.192Z,24.70
2018-07-27T21:55:35.653Z,24.70
2018-07-27T21:59:00.046Z,24.70
2018-07-27T22:02:24.574Z,24.60
2018-07-27T22:05:49.354Z,24.60
2018-07-27T22:09:14.230Z,24.60
2018-07-27T22:12:38.604Z,24.50
2018-07-27T22:16:02.854Z,24.40
2018-07-27T22:19:28.671Z,24.40
2018-07-27T22:23:00.163Z,24.30
2018-07-27T22:26:27.100Z,24.20
2018-07-27T22:29:51.074Z,24.10
2018-07-27T22:33:14.962Z,24.00
2018-07-27T22:36:38.875Z,23.90
2018-07-27T22:40:02.910Z,23.90
2018-07-27T22:43:26.780Z,23.90
2018-07-27T22:46:50.738Z,23.80
2018-07-27T22:50:17.432Z,23.70
2018-07-27T22:53:41.778Z,23.70
2018-07-27T23:00:34.652Z,24.30
2018-07-27T23:04:00.484Z,24.60
2018-07-27T23:07:25.713Z,24.90
2018-07-27T23:10:50.511Z,24.80
2018-07-27T23:14:15.457Z,24.30
2018-07-27T23:21:05.918Z,24.10
2018-07-27T23:24:34.718Z,24.20
2018-07-27T23:28:00.111Z,24.50
2018-07-27T23:31:24.764Z,24.40
2018-07-27T23:34:49.437Z,24.40
2018-07-27T23:38:14.181Z,24.50
2018-07-27T23:41:38.925Z,24.50
2018-07-27T23:45:03.693Z,24.50
2018-07-27T23:51:52.876Z,24.20
2018-07-27T23:55:17.637Z,24.50
2018-07-27T23:58:42.303Z,24.20
